sensor_id;sensor_type;location;lat;lon;timestamp;P1;durP1;ratioP1;P2;durP2;ratioP2
39738;SDS011;25422;48.286;8.484;2023-01-25T00:00:02;647.65;;;59.55;;
39738;SDS011;25422;48.286;8.484;2023-01-25T00:02:30;550.97;;;57.20;;
39738;SDS011;25422;48.286;8.484;2023-01-25T00:04:55;569.47;;;62.30;;
39738;SDS011;25422;48.286;8.484;2023-01-25T00:07:20;732.85;;;80.95;;
39738;SDS011;25422;48.286;8.484;2023-01-25T00:09:46;429.25;;;42.65;;
39738;SDS011;25422;48.286;8.484;2023-01-25T00:12:11;596.42;;;59.05;;
39738;SDS011;25422;48.286;8.484;2023-01-25T00:14:36;543.85;;;53.30;;
39738;SDS011;25422;48.286;8.484;2023-01-25T00:17:02;651.50;;;54.88;;
39738;SDS011;25422;48.286;8.484;2023-01-25T00:19:27;570.47;;;52.03;;
39738;SDS011;25422;48.286;8.484;2023-01-25T00:21:53;582.05;;;57.40;;
39738;SDS011;25422;48.286;8.484;2023-01-25T00:24:18;586.25;;;75.70;;
39738;SDS011;25422;48.286;8.484;2023-01-25T00:26:46;481.92;;;49.63;;
39738;SDS011;25422;48.286;8.484;2023-01-25T00:29:12;563.30;;;53.53;;
39738;SDS011;25422;48.286;8.484;2023-01-25T00:39:23;651.78;;;70.70;;
39738;SDS011;25422;48.286;8.484;2023-01-25T00:41:50;592.97;;;51.72;;
39738;SDS011;25422;48.286;8.484;2023-01-25T00:44:16;591.50;;;47.42;;
39738;SDS011;25422;48.286;8.484;2023-01-25T00:46:41;636.28;;;59.80;;
39738;SDS011;25422;48.286;8.484;2023-01-25T00:49:10;626.00;;;64.72;;
39738;SDS011;25422;48.286;8.484;2023-01-25T00:51:44;726.83;;;58.72;;
39738;SDS011;25422;48.286;8.484;2023-01-25T00:54:09;596.42;;;51.28;;
39738;SDS011;25422;48.286;8.484;2023-01-25T00:56:34;635.63;;;63.05;;
39738;SDS011;25422;48.286;8.484;2023-01-25T00:59:00;668.28;;;66.55;;
39738;SDS011;25422;48.286;8.484;2023-01-25T01:01:26;491.92;;;42.40;;
39738;SDS011;25422;48.286;8.484;2023-01-25T01:03:51;604.22;;;51.20;;
39738;SDS011;25422;48.286;8.484;2023-01-25T01:06:17;661.92;;;54.75;;
39738;SDS011;25422;48.286;8.484;2023-01-25T01:08:43;619.47;;;45.42;;
39738;SDS011;25422;48.286;8.484;2023-01-25T01:11:10;584.17;;;48.05;;
39738;SDS011;25422;48.286;8.484;2023-01-25T01:13:36;637.42;;;45.65;;
39738;SDS011;25422;48.286;8.484;2023-01-25T01:16:03;661.28;;;41.15;;
39738;SDS011;25422;48.286;8.484;2023-01-25T01:18:33;622.65;;;62.92;;
39738;SDS011;25422;48.286;8.484;2023-01-25T01:21:00;668.95;;;50.78;;
39738;SDS011;25422;48.286;8.484;2023-01-25T01:23:26;603.25;;;45.63;;
39738;SDS011;25422;48.286;8.484;2023-01-25T01:25:53;667.28;;;45.75;;
39738;SDS011;25422;48.286;8.484;2023-01-25T01:28:18;711.10;;;44.45;;
39738;SDS011;25422;48.286;8.484;2023-01-25T01:30:43;696.75;;;44.92;;
39738;SDS011;25422;48.286;8.484;2023-01-25T01:33:09;490.85;;;38.47;;
39738;SDS011;25422;48.286;8.484;2023-01-25T01:35:34;718.45;;;50.33;;
39738;SDS011;25422;48.286;8.484;2023-01-25T01:37:59;636.45;;;43.30;;
39738;SDS011;25422;48.286;8.484;2023-01-25T01:40:25;656.05;;;48.20;;
39738;SDS011;25422;48.286;8.484;2023-01-25T01:43:04;661.38;;;52.85;;
39738;SDS011;25422;48.286;8.484;2023-01-25T01:50:43;650.47;;;46.53;;
39738;SDS011;25422;48.286;8.484;2023-01-25T01:53:10;540.10;;;41.40;;
39738;SDS011;25422;48.286;8.484;2023-01-25T01:55:37;628.05;;;47.53;;
39738;SDS011;25422;48.286;8.484;2023-01-25T01:58:04;512.67;;;47.72;;
39738;SDS011;25422;48.286;8.484;2023-01-25T02:00:33;666.08;;;49.47;;
39738;SDS011;25422;48.286;8.484;2023-01-25T02:03:01;527.28;;;39.78;;
39738;SDS011;25422;48.286;8.484;2023-01-25T02:08:11;492.42;;;54.25;;
39738;SDS011;25422;48.286;8.484;2023-01-25T02:10:38;549.25;;;39.45;;
39738;SDS011;25422;48.286;8.484;2023-01-25T02:13:06;530.58;;;41.55;;
39738;SDS011;25422;48.286;8.484;2023-01-25T02:15:32;589.22;;;43.10;;
39738;SDS011;25422;48.286;8.484;2023-01-25T02:18:09;622.75;;;46.72;;
39738;SDS011;25422;48.286;8.484;2023-01-25T02:20:36;581.10;;;46.22;;
39738;SDS011;25422;48.286;8.484;2023-01-25T02:23:11;524.20;;;42.75;;
39738;SDS011;25422;48.286;8.484;2023-01-25T02:25:48;637.45;;;52.25;;
39738;SDS011;25422;48.286;8.484;2023-01-25T02:28:29;613.67;;;56.00;;
39738;SDS011;25422;48.286;8.484;2023-01-25T02:31:00;757.28;;;73.60;;
39738;SDS011;25422;48.286;8.484;2023-01-25T02:33:26;718.25;;;63.85;;
39738;SDS011;25422;48.286;8.484;2023-01-25T02:35:54;527.20;;;47.13;;
39738;SDS011;25422;48.286;8.484;2023-01-25T02:38:24;710.15;;;58.42;;
39738;SDS011;25422;48.286;8.484;2023-01-25T02:41:09;696.20;;;51.45;;
39738;SDS011;25422;48.286;8.484;2023-01-25T02:43:40;684.63;;;46.72;;
39738;SDS011;25422;48.286;8.484;2023-01-25T02:46:15;586.38;;;50.05;;
39738;SDS011;25422;48.286;8.484;2023-01-25T02:49:04;770.72;;;47.83;;
39738;SDS011;25422;48.286;8.484;2023-01-25T02:51:31;697.38;;;47.53;;
39738;SDS011;25422;48.286;8.484;2023-01-25T02:53:59;719.10;;;59.92;;
39738;SDS011;25422;48.286;8.484;2023-01-25T02:56:25;726.78;;;71.70;;
39738;SDS011;25422;48.286;8.484;2023-01-25T02:58:51;591.65;;;47.38;;
39738;SDS011;25422;48.286;8.484;2023-01-25T03:01:18;564.33;;;40.42;;
39738;SDS011;25422;48.286;8.484;2023-01-25T03:03:43;791.95;;;129.85;;
39738;SDS011;25422;48.286;8.484;2023-01-25T03:06:09;641.00;;;56.63;;
39738;SDS011;25422;48.286;8.484;2023-01-25T03:08:35;549.92;;;46.22;;
39738;SDS011;25422;48.286;8.484;2023-01-25T03:11:01;698.42;;;53.40;;
39738;SDS011;25422;48.286;8.484;2023-01-25T03:13:29;758.25;;;65.68;;
39738;SDS011;25422;48.286;8.484;2023-01-25T03:16:03;667.30;;;47.60;;
39738;SDS011;25422;48.286;8.484;2023-01-25T03:18:33;711.45;;;51.78;;
39738;SDS011;25422;48.286;8.484;2023-01-25T03:21:03;749.70;;;54.85;;
39738;SDS011;25422;48.286;8.484;2023-01-25T03:23:33;599.58;;;62.55;;
39738;SDS011;25422;48.286;8.484;2023-01-25T03:26:03;620.33;;;50.40;;
39738;SDS011;25422;48.286;8.484;2023-01-25T03:28:35;747.28;;;56.00;;
39738;SDS011;25422;48.286;8.484;2023-01-25T03:31:01;552.60;;;44.40;;
39738;SDS011;25422;48.286;8.484;2023-01-25T03:33:28;614.17;;;47.67;;
39738;SDS011;25422;48.286;8.484;2023-01-25T03:35:53;712.47;;;51.67;;
39738;SDS011;25422;48.286;8.484;2023-01-25T03:38:19;734.65;;;68.68;;
39738;SDS011;25422;48.286;8.484;2023-01-25T03:40:46;684.95;;;49.45;;
39738;SDS011;25422;48.286;8.484;2023-01-25T03:43:12;728.70;;;51.42;;
39738;SDS011;25422;48.286;8.484;2023-01-25T03:45:37;674.53;;;48.30;;
39738;SDS011;25422;48.286;8.484;2023-01-25T03:48:03;685.38;;;50.97;;
39738;SDS011;25422;48.286;8.484;2023-01-25T03:50:29;652.22;;;74.32;;
39738;SDS011;25422;48.286;8.484;2023-01-25T03:52:55;656.00;;;52.08;;
39738;SDS011;25422;48.286;8.484;2023-01-25T03:55:28;609.63;;;40.75;;
39738;SDS011;25422;48.286;8.484;2023-01-25T03:57:53;666.83;;;48.63;;
39738;SDS011;25422;48.286;8.484;2023-01-25T04:00:19;520.40;;;38.90;;
39738;SDS011;25422;48.286;8.484;2023-01-25T04:02:48;644.67;;;50.45;;
39738;SDS011;25422;48.286;8.484;2023-01-25T04:05:16;645.75;;;50.55;;
39738;SDS011;25422;48.286;8.484;2023-01-25T04:07:42;597.78;;;44.10;;
39738;SDS011;25422;48.286;8.484;2023-01-25T04:10:08;581.90;;;41.88;;
39738;SDS011;25422;48.286;8.484;2023-01-25T04:12:39;547.58;;;47.40;;
39738;SDS011;25422;48.286;8.484;2023-01-25T04:15:04;584.38;;;46.75;;
39738;SDS011;25422;48.286;8.484;2023-01-25T04:17:30;612.08;;;44.47;;
39738;SDS011;25422;48.286;8.484;2023-01-25T04:19:59;583.78;;;42.75;;
39738;SDS011;25422;48.286;8.484;2023-01-25T04:22:32;692.25;;;49.45;;
39738;SDS011;25422;48.286;8.484;2023-01-25T04:24:57;671.38;;;53.00;;
39738;SDS011;25422;48.286;8.484;2023-01-25T04:27:23;624.13;;;53.55;;
39738;SDS011;25422;48.286;8.484;2023-01-25T04:30:02;538.63;;;42.75;;
39738;SDS011;25422;48.286;8.484;2023-01-25T04:32:28;506.25;;;41.58;;
39738;SDS011;25422;48.286;8.484;2023-01-25T04:34:55;570.92;;;45.50;;
39738;SDS011;25422;48.286;8.484;2023-01-25T04:37:23;315.02;;;30.75;;
39738;SDS011;25422;48.286;8.484;2023-01-25T04:39:53;479.67;;;36.60;;
39738;SDS011;25422;48.286;8.484;2023-01-25T04:42:19;361.77;;;35.10;;
39738;SDS011;25422;48.286;8.484;2023-01-25T04:44:48;486.63;;;38.80;;
39738;SDS011;25422;48.286;8.484;2023-01-25T04:47:14;408.90;;;43.30;;
39738;SDS011;25422;48.286;8.484;2023-01-25T04:49:39;455.25;;;38.50;;
39738;SDS011;25422;48.286;8.484;2023-01-25T04:52:05;564.47;;;46.95;;
39738;SDS011;25422;48.286;8.484;2023-01-25T04:54:31;464.95;;;42.63;;
39738;SDS011;25422;48.286;8.484;2023-01-25T04:56:57;363.05;;;35.67;;
39738;SDS011;25422;48.286;8.484;2023-01-25T04:59:23;312.55;;;35.67;;
39738;SDS011;25422;48.286;8.484;2023-01-25T05:01:50;414.02;;;36.67;;
39738;SDS011;25422;48.286;8.484;2023-01-25T05:04:15;450.50;;;34.72;;
39738;SDS011;25422;48.286;8.484;2023-01-25T05:06:44;424.55;;;35.28;;
39738;SDS011;25422;48.286;8.484;2023-01-25T05:09:09;384.02;;;44.83;;
39738;SDS011;25422;48.286;8.484;2023-01-25T05:11:35;431.17;;;38.50;;
39738;SDS011;25422;48.286;8.484;2023-01-25T05:14:10;426.25;;;38.55;;
39738;SDS011;25422;48.286;8.484;2023-01-25T05:16:35;296.05;;;34.13;;
39738;SDS011;25422;48.286;8.484;2023-01-25T05:19:02;310.88;;;33.30;;
39738;SDS011;25422;48.286;8.484;2023-01-25T05:21:37;263.30;;;30.33;;
39738;SDS011;25422;48.286;8.484;2023-01-25T05:24:21;227.02;;;31.50;;
39738;SDS011;25422;48.286;8.484;2023-01-25T05:26:47;117.78;;;27.15;;
39738;SDS011;25422;48.286;8.484;2023-01-25T05:29:26;122.53;;;31.40;;
39738;SDS011;25422;48.286;8.484;2023-01-25T05:32:00;114.22;;;28.65;;
39738;SDS011;25422;48.286;8.484;2023-01-25T05:34:27;109.88;;;30.48;;
39738;SDS011;25422;48.286;8.484;2023-01-25T05:36:52;99.03;;;29.52;;
39738;SDS011;25422;48.286;8.484;2023-01-25T05:39:18;109.00;;;29.02;;
39738;SDS011;25422;48.286;8.484;2023-01-25T05:41:46;161.98;;;51.33;;
39738;SDS011;25422;48.286;8.484;2023-01-25T05:44:12;103.18;;;28.88;;
39738;SDS011;25422;48.286;8.484;2023-01-25T05:46:42;96.90;;;28.60;;
39738;SDS011;25422;48.286;8.484;2023-01-25T05:49:08;193.55;;;94.30;;
39738;SDS011;25422;48.286;8.484;2023-01-25T05:51:34;104.38;;;36.53;;
39738;SDS011;25422;48.286;8.484;2023-01-25T05:54:03;107.78;;;37.13;;
39738;SDS011;25422;48.286;8.484;2023-01-25T05:56:32;111.78;;;43.05;;
39738;SDS011;25422;48.286;8.484;2023-01-25T05:58:59;103.72;;;38.53;;
39738;SDS011;25422;48.286;8.484;2023-01-25T06:01:26;142.07;;;65.85;;
39738;SDS011;25422;48.286;8.484;2023-01-25T06:03:56;106.38;;;43.25;;
39738;SDS011;25422;48.286;8.484;2023-01-25T06:06:23;83.75;;;28.30;;
39738;SDS011;25422;48.286;8.484;2023-01-25T06:08:50;83.45;;;31.15;;
39738;SDS011;25422;48.286;8.484;2023-01-25T06:11:17;102.70;;;35.85;;
39738;SDS011;25422;48.286;8.484;2023-01-25T06:13:46;84.35;;;29.70;;
39738;SDS011;25422;48.286;8.484;2023-01-25T06:16:13;78.55;;;28.45;;
39738;SDS011;25422;48.286;8.484;2023-01-25T06:18:41;77.43;;;27.47;;
39738;SDS011;25422;48.286;8.484;2023-01-25T06:21:16;76.50;;;29.55;;
39738;SDS011;25422;48.286;8.484;2023-01-25T06:23:41;75.25;;;27.38;;
39738;SDS011;25422;48.286;8.484;2023-01-25T06:26:09;83.07;;;28.70;;
39738;SDS011;25422;48.286;8.484;2023-01-25T06:28:36;82.22;;;27.67;;
39738;SDS011;25422;48.286;8.484;2023-01-25T06:31:03;88.53;;;28.45;;
39738;SDS011;25422;48.286;8.484;2023-01-25T06:33:30;86.28;;;28.17;;
39738;SDS011;25422;48.286;8.484;2023-01-25T06:35:59;83.40;;;27.30;;
39738;SDS011;25422;48.286;8.484;2023-01-25T06:38:25;83.75;;;27.30;;
39738;SDS011;25422;48.286;8.484;2023-01-25T06:40:50;81.57;;;33.58;;
39738;SDS011;25422;48.286;8.484;2023-01-25T06:43:16;94.25;;;37.58;;
39738;SDS011;25422;48.286;8.484;2023-01-25T06:45:41;75.13;;;26.40;;
39738;SDS011;25422;48.286;8.484;2023-01-25T06:48:07;82.57;;;28.58;;
39738;SDS011;25422;48.286;8.484;2023-01-25T06:50:32;76.57;;;28.65;;
39738;SDS011;25422;48.286;8.484;2023-01-25T06:52:57;142.50;;;87.63;;
39738;SDS011;25422;48.286;8.484;2023-01-25T06:55:23;112.10;;;55.25;;
39738;SDS011;25422;48.286;8.484;2023-01-25T06:57:48;127.50;;;69.25;;
39738;SDS011;25422;48.286;8.484;2023-01-25T07:00:14;86.05;;;39.00;;
39738;SDS011;25422;48.286;8.484;2023-01-25T07:02:40;72.57;;;30.50;;
39738;SDS011;25422;48.286;8.484;2023-01-25T07:05:06;79.50;;;28.77;;
39738;SDS011;25422;48.286;8.484;2023-01-25T07:07:32;119.63;;;46.05;;
39738;SDS011;25422;48.286;8.484;2023-01-25T07:09:57;82.53;;;30.42;;
39738;SDS011;25422;48.286;8.484;2023-01-25T07:12:24;78.70;;;28.40;;
39738;SDS011;25422;48.286;8.484;2023-01-25T07:14:50;75.78;;;29.10;;
39738;SDS011;25422;48.286;8.484;2023-01-25T07:17:15;86.10;;;29.20;;
39738;SDS011;25422;48.286;8.484;2023-01-25T07:19:41;73.15;;;27.42;;
39738;SDS011;25422;48.286;8.484;2023-01-25T07:22:06;74.93;;;31.70;;
39738;SDS011;25422;48.286;8.484;2023-01-25T07:24:32;63.10;;;27.15;;
39738;SDS011;25422;48.286;8.484;2023-01-25T07:26:57;100.75;;;51.10;;
39738;SDS011;25422;48.286;8.484;2023-01-25T07:29:22;79.55;;;34.30;;
39738;SDS011;25422;48.286;8.484;2023-01-25T07:31:48;76.47;;;28.65;;
39738;SDS011;25422;48.286;8.484;2023-01-25T07:34:13;75.72;;;27.90;;
39738;SDS011;25422;48.286;8.484;2023-01-25T07:36:39;71.95;;;26.60;;
39738;SDS011;25422;48.286;8.484;2023-01-25T07:39:05;81.20;;;28.77;;
39738;SDS011;25422;48.286;8.484;2023-01-25T07:41:33;74.55;;;30.83;;
39738;SDS011;25422;48.286;8.484;2023-01-25T07:43:59;75.50;;;28.35;;
39738;SDS011;25422;48.286;8.484;2023-01-25T07:46:33;84.97;;;33.53;;
39738;SDS011;25422;48.286;8.484;2023-01-25T07:48:59;85.15;;;32.88;;
39738;SDS011;25422;48.286;8.484;2023-01-25T07:51:24;76.63;;;30.30;;
39738;SDS011;25422;48.286;8.484;2023-01-25T07:53:58;77.25;;;31.10;;
39738;SDS011;25422;48.286;8.484;2023-01-25T07:56:26;87.70;;;36.58;;
39738;SDS011;25422;48.286;8.484;2023-01-25T07:58:57;101.53;;;47.55;;
39738;SDS011;25422;48.286;8.484;2023-01-25T08:01:24;101.05;;;44.20;;
39738;SDS011;25422;48.286;8.484;2023-01-25T08:03:51;82.57;;;31.65;;
39738;SDS011;25422;48.286;8.484;2023-01-25T08:06:24;76.45;;;32.17;;
39738;SDS011;25422;48.286;8.484;2023-01-25T08:08:55;78.13;;;33.70;;
39738;SDS011;25422;48.286;8.484;2023-01-25T08:11:25;65.70;;;28.08;;
39738;SDS011;25422;48.286;8.484;2023-01-25T08:13:53;73.78;;;31.65;;
39738;SDS011;25422;48.286;8.484;2023-01-25T08:16:20;73.13;;;30.58;;
39738;SDS011;25422;48.286;8.484;2023-01-25T08:18:51;78.82;;;33.83;;
39738;SDS011;25422;48.286;8.484;2023-01-25T08:21:19;78.32;;;34.28;;
39738;SDS011;25422;48.286;8.484;2023-01-25T08:23:44;93.10;;;46.35;;
39738;SDS011;25422;48.286;8.484;2023-01-25T08:26:11;79.60;;;38.90;;
39738;SDS011;25422;48.286;8.484;2023-01-25T08:28:37;110.55;;;59.10;;
39738;SDS011;25422;48.286;8.484;2023-01-25T08:31:07;80.57;;;39.88;;
39738;SDS011;25422;48.286;8.484;2023-01-25T08:33:34;76.90;;;35.35;;
39738;SDS011;25422;48.286;8.484;2023-01-25T08:36:00;64.78;;;28.48;;
39738;SDS011;25422;48.286;8.484;2023-01-25T08:38:26;76.57;;;33.67;;
39738;SDS011;25422;48.286;8.484;2023-01-25T08:40:51;107.78;;;59.50;;
39738;SDS011;25422;48.286;8.484;2023-01-25T08:43:17;103.25;;;47.42;;
39738;SDS011;25422;48.286;8.484;2023-01-25T08:45:42;120.93;;;57.40;;
39738;SDS011;25422;48.286;8.484;2023-01-25T08:48:07;80.45;;;37.75;;
39738;SDS011;25422;48.286;8.484;2023-01-25T08:50:33;89.60;;;36.65;;
39738;SDS011;25422;48.286;8.484;2023-01-25T08:52:58;139.63;;;54.30;;
39738;SDS011;25422;48.286;8.484;2023-01-25T08:55:24;75.25;;;34.65;;
39738;SDS011;25422;48.286;8.484;2023-01-25T08:57:49;62.88;;;31.60;;
39738;SDS011;25422;48.286;8.484;2023-01-25T09:00:15;61.65;;;30.60;;
39738;SDS011;25422;48.286;8.484;2023-01-25T09:02:41;94.07;;;68.97;;
39738;SDS011;25422;48.286;8.484;2023-01-25T09:05:06;116.28;;;82.80;;
39738;SDS011;25422;48.286;8.484;2023-01-25T09:07:32;78.57;;;40.03;;
39738;SDS011;25422;48.286;8.484;2023-01-25T09:10:02;65.57;;;32.40;;
39738;SDS011;25422;48.286;8.484;2023-01-25T09:12:28;78.38;;;32.60;;
39738;SDS011;25422;48.286;8.484;2023-01-25T09:14:53;100.32;;;42.85;;
39738;SDS011;25422;48.286;8.484;2023-01-25T09:17:18;98.20;;;41.08;;
39738;SDS011;25422;48.286;8.484;2023-01-25T09:19:44;81.45;;;35.28;;
39738;SDS011;25422;48.286;8.484;2023-01-25T09:22:11;81.38;;;33.95;;
39738;SDS011;25422;48.286;8.484;2023-01-25T09:24:37;79.28;;;42.92;;
39738;SDS011;25422;48.286;8.484;2023-01-25T09:27:02;80.18;;;40.45;;
39738;SDS011;25422;48.286;8.484;2023-01-25T09:29:27;54.60;;;27.52;;
39738;SDS011;25422;48.286;8.484;2023-01-25T09:31:53;68.05;;;33.92;;
39738;SDS011;25422;48.286;8.484;2023-01-25T09:34:30;68.53;;;29.92;;
39738;SDS011;25422;48.286;8.484;2023-01-25T09:36:55;57.33;;;27.30;;
39738;SDS011;25422;48.286;8.484;2023-01-25T09:39:21;60.10;;;28.38;;
39738;SDS011;25422;48.286;8.484;2023-01-25T09:41:54;60.00;;;30.17;;
39738;SDS011;25422;48.286;8.484;2023-01-25T09:44:33;55.33;;;26.30;;
39738;SDS011;25422;48.286;8.484;2023-01-25T09:47:20;60.72;;;27.25;;
39738;SDS011;25422;48.286;8.484;2023-01-25T09:55:24;60.45;;;28.83;;
39738;SDS011;25422;48.286;8.484;2023-01-25T09:57:53;56.47;;;28.70;;
39738;SDS011;25422;48.286;8.484;2023-01-25T10:00:28;57.85;;;27.40;;
39738;SDS011;25422;48.286;8.484;2023-01-25T10:08:30;59.45;;;26.77;;
39738;SDS011;25422;48.286;8.484;2023-01-25T10:13:51;54.10;;;22.95;;
39738;SDS011;25422;48.286;8.484;2023-01-25T10:16:30;47.58;;;23.35;;
39738;SDS011;25422;48.286;8.484;2023-01-25T10:19:14;125.22;;;65.15;;
39738;SDS011;25422;48.286;8.484;2023-01-25T10:21:57;122.97;;;60.10;;
39738;SDS011;25422;48.286;8.484;2023-01-25T10:27:54;71.05;;;36.40;;
39738;SDS011;25422;48.286;8.484;2023-01-25T10:32:49;45.83;;;23.85;;
39738;SDS011;25422;48.286;8.484;2023-01-25T10:35:17;52.25;;;27.02;;
39738;SDS011;25422;48.286;8.484;2023-01-25T10:37:45;52.08;;;24.02;;
39738;SDS011;25422;48.286;8.484;2023-01-25T10:40:13;56.88;;;27.15;;
39738;SDS011;25422;48.286;8.484;2023-01-25T10:42:45;55.58;;;25.42;;
39738;SDS011;25422;48.286;8.484;2023-01-25T10:45:16;58.35;;;26.58;;
39738;SDS011;25422;48.286;8.484;2023-01-25T10:47:43;53.53;;;26.58;;
39738;SDS011;25422;48.286;8.484;2023-01-25T10:50:40;50.88;;;26.13;;
39738;SDS011;25422;48.286;8.484;2023-01-25T10:53:15;51.08;;;24.23;;
39738;SDS011;25422;48.286;8.484;2023-01-25T10:55:53;55.33;;;34.03;;
39738;SDS011;25422;48.286;8.484;2023-01-25T10:58:40;52.88;;;27.08;;
39738;SDS011;25422;48.286;8.484;2023-01-25T11:01:10;53.58;;;27.35;;
39738;SDS011;25422;48.286;8.484;2023-01-25T11:03:38;49.33;;;22.77;;
39738;SDS011;25422;48.286;8.484;2023-01-25T11:06:07;44.28;;;20.08;;
39738;SDS011;25422;48.286;8.484;2023-01-25T11:08:35;51.55;;;24.48;;
39738;SDS011;25422;48.286;8.484;2023-01-25T11:13:55;58.42;;;28.67;;
39738;SDS011;25422;48.286;8.484;2023-01-25T11:16:31;52.22;;;25.25;;
39738;SDS011;25422;48.286;8.484;2023-01-25T11:18:57;52.72;;;25.92;;
39738;SDS011;25422;48.286;8.484;2023-01-25T11:21:28;48.50;;;23.17;;
39738;SDS011;25422;48.286;8.484;2023-01-25T11:24:15;57.30;;;31.05;;
39738;SDS011;25422;48.286;8.484;2023-01-25T11:26:42;56.47;;;28.08;;
39738;SDS011;25422;48.286;8.484;2023-01-25T11:29:14;53.35;;;25.48;;
39738;SDS011;25422;48.286;8.484;2023-01-25T11:31:48;62.33;;;28.95;;
39738;SDS011;25422;48.286;8.484;2023-01-25T11:34:17;66.90;;;31.38;;
39738;SDS011;25422;48.286;8.484;2023-01-25T11:36:54;59.63;;;28.87;;
39738;SDS011;25422;48.286;8.484;2023-01-25T11:39:43;56.60;;;28.27;;
39738;SDS011;25422;48.286;8.484;2023-01-25T11:55:39;56.38;;;26.30;;
39738;SDS011;25422;48.286;8.484;2023-01-25T12:01:00;56.15;;;24.83;;
39738;SDS011;25422;48.286;8.484;2023-01-25T12:03:39;78.70;;;33.92;;
39738;SDS011;25422;48.286;8.484;2023-01-25T12:06:27;60.67;;;28.45;;
39738;SDS011;25422;48.286;8.484;2023-01-25T12:09:10;69.65;;;30.50;;
39738;SDS011;25422;48.286;8.484;2023-01-25T12:28:09;59.85;;;27.50;;
39738;SDS011;25422;48.286;8.484;2023-01-25T12:30:52;50.35;;;26.67;;
39738;SDS011;25422;48.286;8.484;2023-01-25T12:33:36;54.13;;;24.98;;
39738;SDS011;25422;48.286;8.484;2023-01-25T12:36:10;53.50;;;26.80;;
39738;SDS011;25422;48.286;8.484;2023-01-25T12:44:36;55.63;;;26.85;;
39738;SDS011;25422;48.286;8.484;2023-01-25T12:50:01;54.45;;;27.95;;
39738;SDS011;25422;48.286;8.484;2023-01-25T12:52:29;56.30;;;24.80;;
39738;SDS011;25422;48.286;8.484;2023-01-25T12:55:04;51.10;;;23.33;;
39738;SDS011;25422;48.286;8.484;2023-01-25T13:00:35;50.83;;;25.27;;
39738;SDS011;25422;48.286;8.484;2023-01-25T13:05:57;49.63;;;25.83;;
39738;SDS011;25422;48.286;8.484;2023-01-25T13:08:39;56.78;;;26.17;;
39738;SDS011;25422;48.286;8.484;2023-01-25T13:16:53;60.35;;;27.25;;
39738;SDS011;25422;48.286;8.484;2023-01-25T13:19:20;56.65;;;27.55;;
39738;SDS011;25422;48.286;8.484;2023-01-25T13:22:02;61.40;;;30.60;;
39738;SDS011;25422;48.286;8.484;2023-01-25T13:24:29;84.22;;;40.38;;
39738;SDS011;25422;48.286;8.484;2023-01-25T13:27:00;65.07;;;26.35;;
39738;SDS011;25422;48.286;8.484;2023-01-25T13:32:03;56.83;;;25.90;;
39738;SDS011;25422;48.286;8.484;2023-01-25T13:37:14;59.90;;;25.67;;
39738;SDS011;25422;48.286;8.484;2023-01-25T13:39:42;53.45;;;25.05;;
39738;SDS011;25422;48.286;8.484;2023-01-25T13:44:36;51.85;;;22.52;;
39738;SDS011;25422;48.286;8.484;2023-01-25T13:47:09;61.60;;;23.75;;
39738;SDS011;25422;48.286;8.484;2023-01-25T13:49:40;55.40;;;28.58;;
39738;SDS011;25422;48.286;8.484;2023-01-25T13:52:15;46.00;;;23.63;;
39738;SDS011;25422;48.286;8.484;2023-01-25T13:54:47;48.78;;;23.98;;
39738;SDS011;25422;48.286;8.484;2023-01-25T13:57:18;55.72;;;25.30;;
39738;SDS011;25422;48.286;8.484;2023-01-25T13:59:45;51.63;;;25.90;;
39738;SDS011;25422;48.286;8.484;2023-01-25T14:02:20;51.45;;;29.48;;
39738;SDS011;25422;48.286;8.484;2023-01-25T14:04:49;50.97;;;26.50;;
39738;SDS011;25422;48.286;8.484;2023-01-25T14:07:17;47.83;;;24.17;;
39738;SDS011;25422;48.286;8.484;2023-01-25T14:09:44;45.17;;;23.27;;
39738;SDS011;25422;48.286;8.484;2023-01-25T14:12:13;53.55;;;29.38;;
39738;SDS011;25422;48.286;8.484;2023-01-25T14:14:54;60.42;;;34.28;;
39738;SDS011;25422;48.286;8.484;2023-01-25T14:17:21;54.20;;;29.70;;
39738;SDS011;25422;48.286;8.484;2023-01-25T14:19:56;56.55;;;26.00;;
39738;SDS011;25422;48.286;8.484;2023-01-25T14:22:26;50.97;;;26.40;;
39738;SDS011;25422;48.286;8.484;2023-01-25T14:25:05;51.72;;;23.30;;
39738;SDS011;25422;48.286;8.484;2023-01-25T14:27:36;50.03;;;24.52;;
39738;SDS011;25422;48.286;8.484;2023-01-25T14:30:27;53.58;;;27.00;;
39738;SDS011;25422;48.286;8.484;2023-01-25T14:32:55;66.40;;;32.65;;
39738;SDS011;25422;48.286;8.484;2023-01-25T14:37:58;68.38;;;27.58;;
39738;SDS011;25422;48.286;8.484;2023-01-25T14:40:24;76.32;;;33.55;;
39738;SDS011;25422;48.286;8.484;2023-01-25T14:42:56;61.15;;;28.10;;
39738;SDS011;25422;48.286;8.484;2023-01-25T14:45:29;62.55;;;30.27;;
39738;SDS011;25422;48.286;8.484;2023-01-25T14:47:57;68.18;;;35.67;;
39738;SDS011;25422;48.286;8.484;2023-01-25T14:50:30;61.88;;;31.13;;
39738;SDS011;25422;48.286;8.484;2023-01-25T14:52:58;51.60;;;23.15;;
39738;SDS011;25422;48.286;8.484;2023-01-25T14:55:33;53.95;;;27.45;;
39738;SDS011;25422;48.286;8.484;2023-01-25T14:58:00;62.05;;;29.00;;
39738;SDS011;25422;48.286;8.484;2023-01-25T15:00:27;78.88;;;34.72;;
39738;SDS011;25422;48.286;8.484;2023-01-25T15:02:59;98.65;;;39.88;;
39738;SDS011;25422;48.286;8.484;2023-01-25T15:05:29;88.72;;;36.03;;
39738;SDS011;25422;48.286;8.484;2023-01-25T15:10:31;89.65;;;31.23;;
39738;SDS011;25422;48.286;8.484;2023-01-25T15:15:36;104.07;;;38.25;;
39738;SDS011;25422;48.286;8.484;2023-01-25T15:23:50;94.68;;;26.77;;
39738;SDS011;25422;48.286;8.484;2023-01-25T15:28:47;100.95;;;40.78;;
39738;SDS011;25422;48.286;8.484;2023-01-25T15:31:17;112.82;;;42.85;;
39738;SDS011;25422;48.286;8.484;2023-01-25T15:33:54;90.65;;;30.63;;
39738;SDS011;25422;48.286;8.484;2023-01-25T15:36:21;133.35;;;29.67;;
39738;SDS011;25422;48.286;8.484;2023-01-25T15:38:47;167.82;;;47.80;;
39738;SDS011;25422;48.286;8.484;2023-01-25T15:41:16;194.05;;;41.85;;
39738;SDS011;25422;48.286;8.484;2023-01-25T15:44:08;94.38;;;29.58;;
39738;SDS011;25422;48.286;8.484;2023-01-25T15:46:34;112.57;;;31.52;;
39738;SDS011;25422;48.286;8.484;2023-01-25T15:49:03;153.93;;;55.35;;
39738;SDS011;25422;48.286;8.484;2023-01-25T15:51:31;143.07;;;53.80;;
39738;SDS011;25422;48.286;8.484;2023-01-25T15:53:57;145.52;;;56.20;;
39738;SDS011;25422;48.286;8.484;2023-01-25T15:56:30;122.15;;;42.70;;
39738;SDS011;25422;48.286;8.484;2023-01-25T15:58:59;133.77;;;38.20;;
39738;SDS011;25422;48.286;8.484;2023-01-25T16:01:30;119.20;;;42.70;;
39738;SDS011;25422;48.286;8.484;2023-01-25T16:03:56;130.00;;;31.98;;
39738;SDS011;25422;48.286;8.484;2023-01-25T16:06:31;153.30;;;47.42;;
39738;SDS011;25422;48.286;8.484;2023-01-25T16:09:02;201.77;;;65.40;;
39738;SDS011;25422;48.286;8.484;2023-01-25T16:11:37;195.75;;;54.08;;
39738;SDS011;25422;48.286;8.484;2023-01-25T16:14:05;174.23;;;45.67;;
39738;SDS011;25422;48.286;8.484;2023-01-25T16:16:31;176.70;;;54.58;;
39738;SDS011;25422;48.286;8.484;2023-01-25T16:19:01;133.07;;;39.05;;
39738;SDS011;25422;48.286;8.484;2023-01-25T16:21:27;131.63;;;50.08;;